sensor_id;sensor_type;location;lat;lon;timestamp;temperature;humidity
12303;DHT22;6214;48.012;7.862;2023-04-23T00:00:14;14.80;99.90
12303;DHT22;6214;48.012;7.862;2023-04-23T00:02:45;14.80;99.90
12303;DHT22;6214;48.012;7.862;2023-04-23T00:05:16;14.90;99.90
12303;DHT22;6214;48.012;7.862;2023-04-23T00:07:43;14.90;99.90
12303;DHT22;6214;48.012;7.862;2023-04-23T00:10:10;14.90;99.90
12303;DHT22;6214;48.012;7.862;2023-04-23T00:12:38;14.90;99.90
12303;DHT22;6214;48.012;7.862;2023-04-23T00:15:05;14.90;99.90
12303;DHT22;6214;48.012;7.862;2023-04-23T00:17:32;14.90;99.90
12303;DHT22;6214;48.012;7.862;2023-04-23T00:19:59;14.90;99.90
12303;DHT22;6214;48.012;7.862;2023-04-23T00:22:26;15.00;99.90
12303;DHT22;6214;48.012;7.862;2023-04-23T00:24:53;14.90;99.90
12303;DHT22;6214;48.012;7.862;2023-04-23T00:27:20;14.90;99.90
12303;DHT22;6214;48.012;7.862;2023-04-23T00:29:47;14.90;99.90
12303;DHT22;6214;48.012;7.862;2023-04-23T00:32:14;14.90;99.90
12303;DHT22;6214;48.012;7.862;2023-04-23T00:34:41;14.90;99.90
12303;DHT22;6214;48.012;7.862;2023-04-23T00:37:09;14.60;99.90
12303;DHT22;6214;48.012;7.862;2023-04-23T00:39:36;14.50;99.90
12303;DHT22;6214;48.012;7.862;2023-04-23T00:42:04;14.40;99.90
12303;DHT22;6214;48.012;7.862;2023-04-23T00:44:37;14.40;99.90
12303;DHT22;6214;48.012;7.862;2023-04-23T00:47:06;14.30;99.90
12303;DHT22;6214;48.012;7.862;2023-04-23T00:49:34;14.30;99.90
12303;DHT22;6214;48.012;7.862;2023-04-23T00:52:05;14.30;99.90
12303;DHT22;6214;48.012;7.862;2023-04-23T00:54:32;14.20;99.90
12303;DHT22;6214;48.012;7.862;2023-04-23T00:56:59;14.10;99.90
12303;DHT22;6214;48.012;7.862;2023-04-23T00:59:28;14.10;99.90
12303;DHT22;6214;48.012;7.862;2023-04-23T01:01:55;14.10;99.90
12303;DHT22;6214;48.012;7.862;2023-04-23T01:04:23;14.00;99.90
12303;DHT22;6214;48.012;7.862;2023-04-23T01:06:52;14.00;99.90
12303;DHT22;6214;48.012;7.862;2023-04-23T01:09:19;14.00;99.90
12303;DHT22;6214;48.012;7.862;2023-04-23T01:11:47;13.90;99.90
12303;DHT22;6214;48.012;7.862;2023-04-23T01:14:16;13.80;99.90
12303;DHT22;6214;48.012;7.862;2023-04-23T01:16:43;13.70;99.90
12303;DHT22;6214;48.012;7.862;2023-04-23T01:19:11;13.60;99.90
12303;DHT22;6214;48.012;7.862;2023-04-23T01:21:38;13.50;99.90
12303;DHT22;6214;48.012;7.862;2023-04-23T01:24:09;13.50;99.90
12303;DHT22;6214;48.012;7.862;2023-04-23T01:26:38;13.60;99.90
12303;DHT22;6214;48.012;7.862;2023-04-23T01:29:06;13.60;99.90
12303;DHT22;6214;48.012;7.862;2023-04-23T01:31:33;13.60;99.90
12303;DHT22;6214;48.012;7.862;2023-04-23T01:34:00;13.40;99.90
12303;DHT22;6214;48.012;7.862;2023-04-23T01:36:27;13.40;99.90
12303;DHT22;6214;48.012;7.862;2023-04-23T01:38:55;13.50;99.90
12303;DHT22;6214;48.012;7.862;2023-04-23T01:41:22;13.40;99.90
12303;DHT22;6214;48.012;7.862;2023-04-23T01:43:49;13.30;99.90
12303;DHT22;6214;48.012;7.862;2023-04-23T01:46:16;13.30;99.90
12303;DHT22;6214;48.012;7.862;2023-04-23T01:48:43;13.40;99.90
12303;DHT22;6214;48.012;7.862;2023-04-23T01:51:10;13.30;99.90
12303;DHT22;6214;48.012;7.862;2023-04-23T01:53:37;13.30;99.90
12303;DHT22;6214;48.012;7.862;2023-04-23T01:56:05;13.30;99.90
12303;DHT22;6214;48.012;7.862;2023-04-23T01:58:32;13.30;99.90
12303;DHT22;6214;48.012;7.862;2023-04-23T02:00:59;13.40;99.90
12303;DHT22;6214;48.012;7.862;2023-04-23T02:03:27;13.50;99.90
12303;DHT22;6214;48.012;7.862;2023-04-23T02:05:57;13.40;99.90
12303;DHT22;6214;48.012;7.862;2023-04-23T02:08:25;13.40;99.90
12303;DHT22;6214;48.012;7.862;2023-04-23T02:10:52;13.30;99.90
12303;DHT22;6214;48.012;7.862;2023-04-23T02:13:19;13.20;99.90
12303;DHT22;6214;48.012;7.862;2023-04-23T02:15:46;13.20;99.90
12303;DHT22;6214;48.012;7.862;2023-04-23T02:18:13;13.20;99.90
12303;DHT22;6214;48.012;7.862;2023-04-23T02:20:40;13.30;99.90
12303;DHT22;6214;48.012;7.862;2023-04-23T02:23:08;13.20;99.90
12303;DHT22;6214;48.012;7.862;2023-04-23T02:25:36;13.20;99.90
12303;DHT22;6214;48.012;7.862;2023-04-23T02:28:05;13.10;99.90
12303;DHT22;6214;48.012;7.862;2023-04-23T02:30:34;13.10;99.90
12303;DHT22;6214;48.012;7.862;2023-04-23T02:33:01;13.20;99.90
12303;DHT22;6214;48.012;7.862;2023-04-23T02:35:29;13.10;99.90
12303;DHT22;6214;48.012;7.862;2023-04-23T02:37:57;13.20;99.90
12303;DHT22;6214;48.012;7.862;2023-04-23T02:40:24;13.20;99.90
12303;DHT22;6214;48.012;7.862;2023-04-23T02:42:50;13.20;99.90
12303;DHT22;6214;48.012;7.862;2023-04-23T02:45:17;13.20;99.90
12303;DHT22;6214;48.012;7.862;2023-04-23T02:47:44;13.20;99.90
12303;DHT22;6214;48.012;7.862;2023-04-23T02:50:11;13.20;99.90
12303;DHT22;6214;48.012;7.862;2023-04-23T02:52:38;13.20;99.90
12303;DHT22;6214;48.012;7.862;2023-04-23T02:55:06;13.20;99.90
12303;DHT22;6214;48.012;7.862;2023-04-23T02:57:33;13.30;99.90
12303;DHT22;6214;48.012;7.862;2023-04-23T03:00:00;13.30;99.90
12303;DHT22;6214;48.012;7.862;2023-04-23T03:02:27;13.30;99.90
12303;DHT22;6214;48.012;7.862;2023-04-23T03:04:54;13.20;99.90
12303;DHT22;6214;48.012;7.862;2023-04-23T03:07:21;13.30;99.90
12303;DHT22;6214;48.012;7.862;2023-04-23T03:09:48;13.30;99.90
12303;DHT22;6214;48.012;7.862;2023-04-23T03:12:15;13.20;99.90
12303;DHT22;6214;48.012;7.862;2023-04-23T03:14:42;13.20;99.90
12303;DHT22;6214;48.012;7.862;2023-04-23T03:17:09;13.20;99.90
12303;DHT22;6214;48.012;7.862;2023-04-23T03:19:36;13.30;99.90
12303;DHT22;6214;48.012;7.862;2023-04-23T03:22:03;13.30;99.90
12303;DHT22;6214;48.012;7.862;2023-04-23T03:24:34;13.30;99.90
12303;DHT22;6214;48.012;7.862;2023-04-23T03:27:01;13.40;99.90
12303;DHT22;6214;48.012;7.862;2023-04-23T03:29:28;13.40;99.90
12303;DHT22;6214;48.012;7.862;2023-04-23T03:31:55;13.40;99.90
12303;DHT22;6214;48.012;7.862;2023-04-23T03:34:22;13.30;99.90
12303;DHT22;6214;48.012;7.862;2023-04-23T03:36:49;13.40;99.90
12303;DHT22;6214;48.012;7.862;2023-04-23T03:39:16;13.40;99.90
12303;DHT22;6214;48.012;7.862;2023-04-23T03:41:43;13.30;99.90
12303;DHT22;6214;48.012;7.862;2023-04-23T03:44:11;13.30;99.90
12303;DHT22;6214;48.012;7.862;2023-04-23T03:46:38;13.40;99.90
12303;DHT22;6214;48.012;7.862;2023-04-23T03:49:05;13.40;99.90
12303;DHT22;6214;48.012;7.862;2023-04-23T03:51:32;13.40;99.90
12303;DHT22;6214;48.012;7.862;2023-04-23T03:53:59;13.40;99.90
12303;DHT22;6214;48.012;7.862;2023-04-23T03:56:26;13.50;99.90
12303;DHT22;6214;48.012;7.862;2023-04-23T03:58:53;13.40;99.90
12303;DHT22;6214;48.012;7.862;2023-04-23T04:01:20;13.50;99.90
12303;DHT22;6214;48.012;7.862;2023-04-23T04:03:47;13.50;99.90
12303;DHT22;6214;48.012;7.862;2023-04-23T04:06:15;13.50;99.90
12303;DHT22;6214;48.012;7.862;2023-04-23T04:08:41;13.40;99.90
12303;DHT22;6214;48.012;7.862;2023-04-23T04:11:08;13.40;99.90
12303;DHT22;6214;48.012;7.862;2023-04-23T04:13:35;13.40;99.90
12303;DHT22;6214;48.012;7.862;2023-04-23T04:16:02;13.60;99.90
12303;DHT22;6214;48.012;7.862;2023-04-23T04:18:29;13.60;99.90
12303;DHT22;6214;48.012;7.862;2023-04-23T04:20:56;13.60;99.90
12303;DHT22;6214;48.012;7.862;2023-04-23T04:23:23;13.60;99.90
12303;DHT22;6214;48.012;7.862;2023-04-23T04:25:50;13.50;99.90
12303;DHT22;6214;48.012;7.862;2023-04-23T04:28:20;13.50;99.90
12303;DHT22;6214;48.012;7.862;2023-04-23T04:30:47;13.60;99.90
12303;DHT22;6214;48.012;7.862;2023-04-23T04:33:15;13.60;99.90
12303;DHT22;6214;48.012;7.862;2023-04-23T04:35:42;13.50;99.90
12303;DHT22;6214;48.012;7.862;2023-04-23T04:38:11;13.40;99.90
12303;DHT22;6214;48.012;7.862;2023-04-23T04:40:38;13.50;99.90
12303;DHT22;6214;48.012;7.862;2023-04-23T04:43:05;13.60;99.90
12303;DHT22;6214;48.012;7.862;2023-04-23T04:45:32;13.50;99.90
12303;DHT22;6214;48.012;7.862;2023-04-23T04:47:59;13.40;99.90
12303;DHT22;6214;48.012;7.862;2023-04-23T04:50:26;13.40;99.90
12303;DHT22;6214;48.012;7.862;2023-04-23T04:52:53;13.40;99.90
12303;DHT22;6214;48.012;7.862;2023-04-23T04:55:20;13.50;99.90
12303;DHT22;6214;48.012;7.862;2023-04-23T04:57:47;13.50;99.90
12303;DHT22;6214;48.012;7.862;2023-04-23T05:00:22;13.50;99.90
12303;DHT22;6214;48.012;7.862;2023-04-23T05:02:50;13.60;99.90
12303;DHT22;6214;48.012;7.862;2023-04-23T05:05:18;13.70;99.90
12303;DHT22;6214;48.012;7.862;2023-04-23T05:07:46;13.90;99.90
12303;DHT22;6214;48.012;7.862;2023-04-23T05:10:14;14.00;99.90
12303;DHT22;6214;48.012;7.862;2023-04-23T05:12:42;14.30;99.90
12303;DHT22;6214;48.012;7.862;2023-04-23T05:15:10;14.60;99.90
12303;DHT22;6214;48.012;7.862;2023-04-23T05:17:40;14.80;99.90
12303;DHT22;6214;48.012;7.862;2023-04-23T05:20:08;14.80;99.90
12303;DHT22;6214;48.012;7.862;2023-04-23T05:22:39;14.70;99.90
12303;DHT22;6214;48.012;7.862;2023-04-23T05:25:08;14.80;99.90
12303;DHT22;6214;48.012;7.862;2023-04-23T05:27:35;14.80;99.90
12303;DHT22;6214;48.012;7.862;2023-04-23T05:30:03;14.80;99.90
12303;DHT22;6214;48.012;7.862;2023-04-23T05:32:31;14.80;99.90
12303;DHT22;6214;48.012;7.862;2023-04-23T05:34:59;14.90;99.90
12303;DHT22;6214;48.012;7.862;2023-04-23T05:37:26;14.90;99.90
12303;DHT22;6214;48.012;7.862;2023-04-23T05:39:53;15.00;99.90
12303;DHT22;6214;48.012;7.862;2023-04-23T05:42:20;15.10;99.90
12303;DHT22;6214;48.012;7.862;2023-04-23T05:44:46;15.00;99.90
12303;DHT22;6214;48.012;7.862;2023-04-23T05:47:13;15.20;99.90
12303;DHT22;6214;48.012;7.862;2023-04-23T05:49:40;15.60;99.90
12303;DHT22;6214;48.012;7.862;2023-04-23T05:52:07;15.80;99.90
12303;DHT22;6214;48.012;7.862;2023-04-23T05:54:34;16.10;99.90
12303;DHT22;6214;48.012;7.862;2023-04-23T05:57:01;16.40;99.90
12303;DHT22;6214;48.012;7.862;2023-04-23T05:59:28;16.40;99.90
12303;DHT22;6214;48.012;7.862;2023-04-23T06:01:55;16.40;99.90
12303;DHT22;6214;48.012;7.862;2023-04-23T06:04:22;16.90;99.90
12303;DHT22;6214;48.012;7.862;2023-04-23T06:06:49;16.90;99.90
12303;DHT22;6214;48.012;7.862;2023-04-23T06:09:16;16.90;99.90
12303;DHT22;6214;48.012;7.862;2023-04-23T06:11:43;17.10;99.90
12303;DHT22;6214;48.012;7.862;2023-04-23T06:14:10;17.10;99.90
12303;DHT22;6214;48.012;7.862;2023-04-23T06:16:37;17.50;99.90
12303;DHT22;6214;48.012;7.862;2023-04-23T06:19:04;19.00;99.90
12303;DHT22;6214;48.012;7.862;2023-04-23T06:21:32;20.20;99.90
12303;DHT22;6214;48.012;7.862;2023-04-23T06:23:59;21.40;99.90
12303;DHT22;6214;48.012;7.862;2023-04-23T06:26:26;21.70;99.90
12303;DHT22;6214;48.012;7.862;2023-04-23T06:28:53;20.80;99.90
12303;DHT22;6214;48.012;7.862;2023-04-23T06:31:21;20.40;99.90
12303;DHT22;6214;48.012;7.862;2023-04-23T06:33:48;20.20;99.90
12303;DHT22;6214;48.012;7.862;2023-04-23T06:36:15;19.80;99.90
12303;DHT22;6214;48.012;7.862;2023-04-23T06:38:42;19.60;99.90
12303;DHT22;6214;48.012;7.862;2023-04-23T06:41:10;19.20;99.90
12303;DHT22;6214;48.012;7.862;2023-04-23T06:43:38;18.90;99.90
12303;DHT22;6214;48.012;7.862;2023-04-23T06:46:05;18.70;99.90
12303;DHT22;6214;48.012;7.862;2023-04-23T06:48:32;19.40;99.90
12303;DHT22;6214;48.012;7.862;2023-04-23T06:50:59;19.70;99.90
12303;DHT22;6214;48.012;7.862;2023-04-23T06:53:26;20.00;99.90
12303;DHT22;6214;48.012;7.862;2023-04-23T06:55:53;19.90;99.90
12303;DHT22;6214;48.012;7.862;2023-04-23T06:58:20;20.30;99.90
12303;DHT22;6214;48.012;7.862;2023-04-23T07:00:49;21.90;99.90
12303;DHT22;6214;48.012;7.862;2023-04-23T07:03:15;23.40;99.90
12303;DHT22;6214;48.012;7.862;2023-04-23T07:05:43;24.20;99.90
12303;DHT22;6214;48.012;7.862;2023-04-23T07:08:10;23.60;99.90
12303;DHT22;6214;48.012;7.862;2023-04-23T07:10:36;23.00;99.90
12303;DHT22;6214;48.012;7.862;2023-04-23T07:13:03;22.90;99.90
12303;DHT22;6214;48.012;7.862;2023-04-23T07:15:30;22.40;99.90
12303;DHT22;6214;48.012;7.862;2023-04-23T07:17:57;21.80;99.90
12303;DHT22;6214;48.012;7.862;2023-04-23T07:20:24;22.90;99.90
12303;DHT22;6214;48.012;7.862;2023-04-23T07:22:51;23.60;99.90
12303;DHT22;6214;48.012;7.862;2023-04-23T07:25:18;24.40;99.90
12303;DHT22;6214;48.012;7.862;2023-04-23T07:27:47;26.10;99.90
12303;DHT22;6214;48.012;7.862;2023-04-23T07:30:16;27.20;99.90
12303;DHT22;6214;48.012;7.862;2023-04-23T07:32:43;27.40;99.90
12303;DHT22;6214;48.012;7.862;2023-04-23T07:35:10;27.80;99.90
12303;DHT22;6214;48.012;7.862;2023-04-23T07:37:37;28.10;99.90
12303;DHT22;6214;48.012;7.862;2023-04-23T07:40:05;29.40;99.50
12303;DHT22;6214;48.012;7.862;2023-04-23T07:42:34;30.90;95.60
12303;DHT22;6214;48.012;7.862;2023-04-23T07:45:01;31.80;93.50
12303;DHT22;6214;48.012;7.862;2023-04-23T07:47:28;33.50;86.20
12303;DHT22;6214;48.012;7.862;2023-04-23T07:49:55;35.30;79.00
12303;DHT22;6214;48.012;7.862;2023-04-23T07:52:22;35.10;70.00
12303;DHT22;6214;48.012;7.862;2023-04-23T07:54:49;34.80;68.70
12303;DHT22;6214;48.012;7.862;2023-04-23T07:57:16;34.50;67.70
12303;DHT22;6214;48.012;7.862;2023-04-23T07:59:43;34.40;63.50
12303;DHT22;6214;48.012;7.862;2023-04-23T08:02:10;34.60;64.20
12303;DHT22;6214;48.012;7.862;2023-04-23T08:04:37;34.50;62.60
12303;DHT22;6214;48.012;7.862;2023-04-23T08:07:04;33.50;63.20
12303;DHT22;6214;48.012;7.862;2023-04-23T08:09:31;33.60;64.60
12303;DHT22;6214;48.012;7.862;2023-04-23T08:11:58;32.80;62.10
12303;DHT22;6214;48.012;7.862;2023-04-23T08:14:25;33.10;65.90
12303;DHT22;6214;48.012;7.862;2023-04-23T08:16:52;33.60;63.30
12303;DHT22;6214;48.012;7.862;2023-04-23T08:19:19;33.50;63.10
12303;DHT22;6214;48.012;7.862;2023-04-23T08:21:46;33.10;62.30
12303;DHT22;6214;48.012;7.862;2023-04-23T08:24:14;33.10;62.40
12303;DHT22;6214;48.012;7.862;2023-04-23T08:26:41;33.80;62.40
12303;DHT22;6214;48.012;7.862;2023-04-23T08:29:08;33.40;61.10
12303;DHT22;6214;48.012;7.862;2023-04-23T08:31:37;33.60;62.00
12303;DHT22;6214;48.012;7.862;2023-04-23T08:34:04;33.90;62.20
12303;DHT22;6214;48.012;7.862;2023-04-23T08:36:31;34.90;59.80
12303;DHT22;6214;48.012;7.862;2023-04-23T08:38:58;33.70;58.50
12303;DHT22;6214;48.012;7.862;2023-04-23T08:41:31;32.00;60.60
12303;DHT22;6214;48.012;7.862;2023-04-23T08:46:45;29.70;66.30
12303;DHT22;6214;48.012;7.862;2023-04-23T08:49:15;30.10;66.90
12303;DHT22;6214;48.012;7.862;2023-04-23T08:51:48;30.60;67.80
12303;DHT22;6214;48.012;7.862;2023-04-23T08:54:24;31.90;66.10
12303;DHT22;6214;48.012;7.862;2023-04-23T08:56:56;32.20;63.70
12303;DHT22;6214;48.012;7.862;2023-04-23T08:59:29;32.40;64.30
12303;DHT22;6214;48.012;7.862;2023-04-23T09:01:57;32.20;66.30
12303;DHT22;6214;48.012;7.862;2023-04-23T09:04:27;33.50;65.80
12303;DHT22;6214;48.012;7.862;2023-04-23T09:06:54;35.20;60.80
12303;DHT22;6214;48.012;7.862;2023-04-23T09:09:22;35.60;58.00
12303;DHT22;6214;48.012;7.862;2023-04-23T09:11:50;33.20;58.70
12303;DHT22;6214;48.012;7.862;2023-04-23T09:14:22;31.20;61.10
12303;DHT22;6214;48.012;7.862;2023-04-23T09:16:52;29.50;65.30
12303;DHT22;6214;48.012;7.862;2023-04-23T09:19:19;27.10;66.60
12303;DHT22;6214;48.012;7.862;2023-04-23T09:21:46;28.00;71.10
12303;DHT22;6214;48.012;7.862;2023-04-23T09:24:13;28.20;69.50
12303;DHT22;6214;48.012;7.862;2023-04-23T09:26:45;29.90;70.20
12303;DHT22;6214;48.012;7.862;2023-04-23T09:29:14;30.70;65.90
12303;DHT22;6214;48.012;7.862;2023-04-23T09:31:50;30.70;64.50
12303;DHT22;6214;48.012;7.862;2023-04-23T09:34:21;30.30;65.20
12303;DHT22;6214;48.012;7.862;2023-04-23T09:36:51;29.80;64.90
12303;DHT22;6214;48.012;7.862;2023-04-23T09:39:21;28.90;67.50
12303;DHT22;6214;48.012;7.862;2023-04-23T09:41:51;27.60;70.60
12303;DHT22;6214;48.012;7.862;2023-04-23T09:44:20;26.50;73.30
12303;DHT22;6214;48.012;7.862;2023-04-23T09:46:52;25.60;76.80
12303;DHT22;6214;48.012;7.862;2023-04-23T09:49:19;25.40;79.60
12303;DHT22;6214;48.012;7.862;2023-04-23T09:51:48;24.80;79.60
12303;DHT22;6214;48.012;7.862;2023-04-23T09:54:17;25.20;80.40
12303;DHT22;6214;48.012;7.862;2023-04-23T09:56:49;25.70;80.00
12303;DHT22;6214;48.012;7.862;2023-04-23T09:59:23;25.90;79.10
12303;DHT22;6214;48.012;7.862;2023-04-23T10:02:12;25.30;80.00
12303;DHT22;6214;48.012;7.862;2023-04-23T10:04:39;24.50;82.80
12303;DHT22;6214;48.012;7.862;2023-04-23T10:07:06;24.20;85.80
12303;DHT22;6214;48.012;7.862;2023-04-23T10:09:46;23.70;88.30
12303;DHT22;6214;48.012;7.862;2023-04-23T10:12:13;23.50;90.20
12303;DHT22;6214;48.012;7.862;2023-04-23T10:14:45;23.60;90.30
12303;DHT22;6214;48.012;7.862;2023-04-23T10:17:12;24.40;89.70
12303;DHT22;6214;48.012;7.862;2023-04-23T10:19:40;24.20;91.00
12303;DHT22;6214;48.012;7.862;2023-04-23T10:22:10;24.50;91.20
12303;DHT22;6214;48.012;7.862;2023-04-23T10:24:44;24.80;90.50
12303;DHT22;6214;48.012;7.862;2023-04-23T10:27:15;24.60;90.80
12303;DHT22;6214;48.012;7.862;2023-04-23T10:30:04;24.60;91.50
12303;DHT22;6214;48.012;7.862;2023-04-23T10:32:36;23.90;92.10
12303;DHT22;6214;48.012;7.862;2023-04-23T10:35:08;23.70;93.20
12303;DHT22;6214;48.012;7.862;2023-04-23T10:37:36;23.60;93.80
12303;DHT22;6214;48.012;7.862;2023-04-23T10:40:09;23.60;94.00
12303;DHT22;6214;48.012;7.862;2023-04-23T10:42:42;24.10;93.40
12303;DHT22;6214;48.012;7.862;2023-04-23T10:45:14;24.00;93.60
12303;DHT22;6214;48.012;7.862;2023-04-23T10:47:53;23.40;94.60
12303;DHT22;6214;48.012;7.862;2023-04-23T10:50:25;23.50;95.90
12303;DHT22;6214;48.012;7.862;2023-04-23T10:52:53;23.70;95.50
12303;DHT22;6214;48.012;7.862;2023-04-23T10:55:29;23.80;95.10
12303;DHT22;6214;48.012;7.862;2023-04-23T10:57:57;23.80;94.00
12303;DHT22;6214;48.012;7.862;2023-04-23T11:00:42;23.60;94.40
12303;DHT22;6214;48.012;7.862;2023-04-23T11:03:37;23.30;94.50
12303;DHT22;6214;48.012;7.862;2023-04-23T11:07:19;23.40;95.10
12303;DHT22;6214;48.012;7.862;2023-04-23T11:12:00;24.00;93.90
12303;DHT22;6214;48.012;7.862;2023-04-23T11:14:34;24.00;95.10
12303;DHT22;6214;48.012;7.862;2023-04-23T11:17:05;23.80;95.30
12303;DHT22;6214;48.012;7.862;2023-04-23T11:19:38;23.80;96.00
12303;DHT22;6214;48.012;7.862;2023-04-23T11:22:16;24.20;95.60
12303;DHT22;6214;48.012;7.862;2023-04-23T11:24:45;23.90;96.00
12303;DHT22;6214;48.012;7.862;2023-04-23T11:27:17;23.50;96.10
12303;DHT22;6214;48.012;7.862;2023-04-23T11:29:45;23.60;97.50
12303;DHT22;6214;48.012;7.862;2023-04-23T11:32:15;23.70;96.50
12303;DHT22;6214;48.012;7.862;2023-04-23T11:34:44;23.70;96.30
12303;DHT22;6214;48.012;7.862;2023-04-23T11:37:13;23.90;96.30
12303;DHT22;6214;48.012;7.862;2023-04-23T11:39:41;23.80;96.20
12303;DHT22;6214;48.012;7.862;2023-04-23T11:42:11;23.60;96.80
12303;DHT22;6214;48.012;7.862;2023-04-23T11:44:43;23.60;96.80
12303;DHT22;6214;48.012;7.862;2023-04-23T11:47:12;23.30;97.20
12303;DHT22;6214;48.012;7.862;2023-04-23T11:49:41;23.20;98.00
12303;DHT22;6214;48.012;7.862;2023-04-23T11:52:09;23.50;97.50
12303;DHT22;6214;48.012;7.862;2023-04-23T11:54:40;23.50;97.50
12303;DHT22;6214;48.012;7.862;2023-04-23T11:57:07;23.30;96.90
12303;DHT22;6214;48.012;7.862;2023-04-23T11:59:35;23.20;96.30
12303;DHT22;6214;48.012;7.862;2023-04-23T12:02:02;23.50;97.50
12303;DHT22;6214;48.012;7.862;2023-04-23T12:04:30;23.70;97.70
12303;DHT22;6214;48.012;7.862;2023-04-23T12:06:58;23.80;96.90
12303;DHT22;6214;48.012;7.862;2023-04-23T12:09:27;23.90;96.90
12303;DHT22;6214;48.012;7.862;2023-04-23T12:11:55;23.80;97.20
12303;DHT22;6214;48.012;7.862;2023-04-23T12:14:28;23.40;96.50
12303;DHT22;6214;48.012;7.862;2023-04-23T12:16:57;23.50;96.40
12303;DHT22;6214;48.012;7.862;2023-04-23T12:19:29;23.50;96.70
12303;DHT22;6214;48.012;7.862;2023-04-23T12:21:58;23.80;96.30
12303;DHT22;6214;48.012;7.862;2023-04-23T12:24:30;24.00;96.40
12303;DHT22;6214;48.012;7.862;2023-04-23T12:27:13;24.20;97.00
12303;DHT22;6214;48.012;7.862;2023-04-23T12:29:41;24.20;97.10
12303;DHT22;6214;48.012;7.862;2023-04-23T12:32:11;24.60;96.00
12303;DHT22;6214;48.012;7.862;2023-04-23T12:34:53;24.90;95.00
12303;DHT22;6214;48.012;7.862;2023-04-23T12:37:28;25.00;94.40
12303;DHT22;6214;48.012;7.862;2023-04-23T12:39:56;25.10;94.40
12303;DHT22;6214;48.012;7.862;2023-04-23T12:42:25;24.90;95.00
12303;DHT22;6214;48.012;7.862;2023-04-23T12:44:52;24.60;95.30
12303;DHT22;6214;48.012;7.862;2023-04-23T12:47:22;24.70;96.20
12303;DHT22;6214;48.012;7.862;2023-04-23T12:49:49;24.90;96.50
12303;DHT22;6214;48.012;7.862;2023-04-23T12:52:19;24.40;95.70
12303;DHT22;6214;48.012;7.862;2023-04-23T12:54:46;24.10;96.50
12303;DHT22;6214;48.012;7.862;2023-04-23T12:57:17;24.50;96.40
12303;DHT22;6214;48.012;7.862;2023-04-23T12:59:49;24.70;95.90
12303;DHT22;6214;48.012;7.862;2023-04-23T13:02:16;24.70;96.10
12303;DHT22;6214;48.012;7.862;2023-04-23T13:04:43;24.80;96.70
12303;DHT22;6214;48.012;7.862;2023-04-23T13:07:10;24.70;96.10
12303;DHT22;6214;48.012;7.862;2023-04-23T13:09:37;24.40;95.90
12303;DHT22;6214;48.012;7.862;2023-04-23T13:12:04;24.60;96.20
12303;DHT22;6214;48.012;7.862;2023-04-23T13:14:31;24.60;96.40
12303;DHT22;6214;48.012;7.862;2023-04-23T13:16:58;24.70;96.20
12303;DHT22;6214;48.012;7.862;2023-04-23T13:19:25;24.80;96.00
12303;DHT22;6214;48.012;7.862;2023-04-23T13:21:52;24.80;96.10
12303;DHT22;6214;48.012;7.862;2023-04-23T13:24:19;25.00;95.70
12303;DHT22;6214;48.012;7.862;2023-04-23T13:26:46;25.20;95.60
12303;DHT22;6214;48.012;7.862;2023-04-23T13:29:13;25.10;95.70
12303;DHT22;6214;48.012;7.862;2023-04-23T13:31:40;24.80;95.60
12303;DHT22;6214;48.012;7.862;2023-04-23T13:34:07;25.00;95.70
12303;DHT22;6214;48.012;7.862;2023-04-23T13:36:34;24.70;95.90
12303;DHT22;6214;48.012;7.862;2023-04-23T13:39:01;24.60;96.10
12303;DHT22;6214;48.012;7.862;2023-04-23T13:41:28;24.70;96.50
12303;DHT22;6214;48.012;7.862;2023-04-23T13:43:55;24.90;95.20
12303;DHT22;6214;48.012;7.862;2023-04-23T13:46:22;24.80;95.10
12303;DHT22;6214;48.012;7.862;2023-04-23T13:48:49;24.90;95.70
12303;DHT22;6214;48.012;7.862;2023-04-23T13:51:16;24.80;95.00
12303;DHT22;6214;48.012;7.862;2023-04-23T13:54:00;24.80;94.80
12303;DHT22;6214;48.012;7.862;2023-04-23T13:56:27;24.60;94.80
12303;DHT22;6214;48.012;7.862;2023-04-23T13:58:56;24.70;94.50
12303;DHT22;6214;48.012;7.862;2023-04-23T14:01:45;24.60;94.20
12303;DHT22;6214;48.012;7.862;2023-04-23T14:04:16;24.20;94.50
12303;DHT22;6214;48.012;7.862;2023-04-23T14:06:44;23.80;94.40
12303;DHT22;6214;48.012;7.862;2023-04-23T14:09:11;23.50;94.90
12303;DHT22;6214;48.012;7.862;2023-04-23T14:11:38;23.40;95.30
12303;DHT22;6214;48.012;7.862;2023-04-23T14:14:07;23.00;96.00
12303;DHT22;6214;48.012;7.862;2023-04-23T14:16:34;22.80;96.80
12303;DHT22;6214;48.012;7.862;2023-04-23T14:19:01;22.60;97.10
12303;DHT22;6214;48.012;7.862;2023-04-23T14:21:28;22.30;97.10
12303;DHT22;6214;48.012;7.862;2023-04-23T14:24:00;21.90;96.90
12303;DHT22;6214;48.012;7.862;2023-04-23T14:26:32;21.70;97.00
12303;DHT22;6214;48.012;7.862;2023-04-23T14:29:35;21.60;96.60
12303;DHT22;6214;48.012;7.862;2023-04-23T14:32:06;21.50;96.30
12303;DHT22;6214;48.012;7.862;2023-04-23T14:34:33;21.30;96.80
12303;DHT22;6214;48.012;7.862;2023-04-23T14:37:03;21.30;97.00
12303;DHT22;6214;48.012;7.862;2023-04-23T14:39:30;21.60;97.20
12303;DHT22;6214;48.012;7.862;2023-04-23T14:41:57;21.50;96.70
12303;DHT22;6214;48.012;7.862;2023-04-23T14:44:24;21.60;97.00
12303;DHT22;6214;48.012;7.862;2023-04-23T14:46:54;21.30;97.10
12303;DHT22;6214;48.012;7.862;2023-04-23T14:49:21;20.90;98.60
12303;DHT22;6214;48.012;7.862;2023-04-23T14:51:49;20.40;99.90
12303;DHT22;6214;48.012;7.862;2023-04-23T14:54:16;19.90;99.90
12303;DHT22;6214;48.012;7.862;2023-04-23T14:56:43;19.80;99.90
12303;DHT22;6214;48.012;7.862;2023-04-23T14:59:10;20.10;99.90
12303;DHT22;6214;48.012;7.862;2023-04-23T15:01:38;20.50;99.90
12303;DHT22;6214;48.012;7.862;2023-04-23T15:04:05;20.90;99.90
12303;DHT22;6214;48.012;7.862;2023-04-23T15:06:32;21.30;99.90
12303;DHT22;6214;48.012;7.862;2023-04-23T15:08:58;21.60;99.90
12303;DHT22;6214;48.012;7.862;2023-04-23T15:11:25;21.90;99.90
12303;DHT22;6214;48.012;7.862;2023-04-23T15:14:07;22.10;99.90
12303;DHT22;6214;48.012;7.862;2023-04-23T15:16:35;22.00;99.90
12303;DHT22;6214;48.012;7.862;2023-04-23T15:19:05;22.10;99.90
12303;DHT22;6214;48.012;7.862;2023-04-23T15:21:32;22.20;99.90
12303;DHT22;6214;48.012;7.862;2023-04-23T15:23:59;22.10;99.90
12303;DHT22;6214;48.012;7.862;2023-04-23T15:26:26;21.80;99.90
12303;DHT22;6214;48.012;7.862;2023-04-23T15:28:54;21.90;99.90
12303;DHT22;6214;48.012;7.862;2023-04-23T15:31:21;21.70;99.90
12303;DHT22;6214;48.012;7.862;2023-04-23T15:33:48;21.60;99.90
12303;DHT22;6214;48.012;7.862;2023-04-23T15:36:15;21.30;99.90
12303;DHT22;6214;48.012;7.862;2023-04-23T15:38:42;21.20;99.90
12303;DHT22;6214;48.012;7.862;2023-04-23T15:41:10;21.10;99.90
12303;DHT22;6214;48.012;7.862;2023-04-23T15:43:38;21.10;99.90
12303;DHT22;6214;48.012;7.862;2023-04-23T15:46:05;20.70;99.90
12303;DHT22;6214;48.012;7.862;2023-04-23T15:48:32;20.80;99.90
12303;DHT22;6214;48.012;7.862;2023-04-23T15:50:59;20.60;99.90
12303;DHT22;6214;48.012;7.862;2023-04-23T15:53:26;20.50;99.90
12303;DHT22;6214;48.012;7.862;2023-04-23T15:55:53;20.40;99.90
12303;DHT22;6214;48.012;7.862;2023-04-23T15:58:20;20.40;99.90